首页
METAR-TAF:

METAR-TAF

机场 :

扎波羅熱國際機場

扎波罗热, 乌克兰

纬度: 47-52-02N, 经度: 035-18-59E, 海拔: 114米

当前天气观测

该预报发布于36分钟前的05:30 UTC
风速10节,风向南转西南
温度 0°C
湿度 93%
气压 1020 hPa
能見度: 8000

METAR: UKDE 230530Z 21005MPS 8000 NSC 00/M01 Q1020 R20L/090070 NOSIG

时间: 08:06 (06:06 UTC)

预报

该预报发布于54分钟前的05:12 UTC
预报有效从23日的 06点(UTC)到 23日的 15点(UTC)
风速10节,风向南转西南
能见度10公里或以上
多云层高于2000英尺
短暂存在
从 23日的 06点(UTC)到 23日的 08点(UTC)
风速14节,风向西南,有时为23节阵风
能見度: 4000
多云层高于1000英尺
轻雾
短暂存在
从 23日的 08点(UTC)到 23日的 15点(UTC)
风速19节,风向西转西南,有时为29节阵风
能見度: 2100
多云层高于700英尺
多云层高于1500英尺, 积雨云.
小阵雨, 轻雾

TAF: UKDE 230512Z 2306/2315 20005MPS 9999 BKN020 TX06/2312Z TNM00/2306Z TEMPO 2306/2308 22007G12MPS 4000 BR BKN010 TEMPO 2308/2315 24010G15MPS 2100 -SHRA BR BKN007 BKN015CB

超过4000个机场的气象观测和天气预报(METAR&TAF报告)。

可查询的气象台以黄色和红色小点在地图上表示。

将鼠标移到小点上方,可查看气象台名称。

然后点击查看天气观测和预报。

如需切换地图:点击带黑十字的绿色按钮放大地图;点击带横线的绿色按钮缩小地图;或者点击绿色箭头查看邻近地区的地图。


METAR-TAF: